Погода Большой Озерецкна неделю

Витебская область, Белоруссия

23 - 29 июля
  • 23июля
    Сегодня
    +13°
    +26°
    Практически безоблачно
    ВремяПогодаТемператураВлажностьДавлениеВетер, м/сВероятность осадков
    00:00Ясно и безоблачно+19°C95 %745 мм2.3 м/с2 %
    03:00Ясно и безоблачно+16°C98 %745 мм1.5 м/с2 %
    06:00Ясно и безоблачно+16°C98 %746 мм1.8 м/с2 %
    09:00Ясно и безоблачно+20°C82 %746 мм1.3 м/с2 %
    12:00Практически безоблачно+24°C60 %746 мм3.1 м/с3 %
    15:00Практически безоблачно+25°C53 %746 мм2.8 м/с7 %
    18:00Ясно и безоблачно+26°C50 %745 мм3.3 м/с2 %
    21:00Ясно и безоблачно+21°C70 %746 мм0.7 м/с2 %
  • 24июля
    Среда
    +14°
    +26°
    Небольшая облачность
    ВремяПогодаТемператураВлажностьДавлениеВетер, м/сВероятность осадков
    00:00Ясно и безоблачно+18°C76 %746 мм2.1 м/с2 %
    03:00Ясно и безоблачно+15°C86 %746 мм2.2 м/с2 %
    06:00Ясно и безоблачно+15°C88 %745 мм1.8 м/с2 %
    09:00Ясно и безоблачно+20°C73 %745 мм1.3 м/с2 %
    12:00Небольшая облачность+25°C54 %745 мм2.8 м/с5 %
    15:00Небольшая облачность+25°C52 %745 мм3.0 м/с7 %
    18:00Практически безоблачно+25°C50 %744 мм2.2 м/с4 %
    21:00Ясно и безоблачно+21°C64 %744 мм0.7 м/с2 %
  • 25июля
    Четверг
    +16°
    +26°
    Пасмурно, сплошная облачность
    ВремяПогодаТемператураВлажностьДавлениеВетер, м/сВероятность осадков
    00:00Небольшая облачность+17°C79 %744 мм2.0 м/с2 %
    03:00Ясно и безоблачно+17°C77 %744 мм0.9 м/с2 %
    06:00Ясно и безоблачно+15°C84 %744 мм1.6 м/с2 %
    09:00Практически безоблачно+21°C65 %744 мм1.2 м/с2 %
    12:00Пасмурно, сплошная облачность+25°C42 %744 мм2.8 м/с2 %
    15:00Пасмурно, сплошная облачность+25°C43 %744 мм2.5 м/с2 %
    18:00Облачно с прояснениями+26°C46 %743 мм1.1 м/с4 %
    21:00Ясно и безоблачно+22°C67 %744 мм0.6 м/с3 %
  • 26июля
    Пятница
    +16°
    +27°
    Облачно с прояснениями
    ВремяПогодаТемператураВлажностьДавлениеВетер, м/сВероятность осадков
    00:00Облачно с прояснениями+19°C75 %744 мм1.9 м/с2 %
    03:00Небольшая облачность+18°C86 %744 мм1.7 м/с2 %
    06:00Облачно с прояснениями+18°C80 %744 мм1.8 м/с2 %
    09:00Облачно с прояснениями+22°C71 %745 мм1.2 м/с2 %
    12:00Небольшая облачность+26°C51 %746 мм1.6 м/с8 %
    15:00Облачно с прояснениями+27°C46 %746 мм1.1 м/с29 %
    18:00Облачно с прояснениями+25°C60 %747 мм0.9 м/с45 %
    21:00Облачно с прояснениями+23°C73 %747 мм0.5 м/с15 %
  • 27июля
    Суббота
    +17°
    +28°
    Ясно и безоблачно
    ВремяПогодаТемператураВлажностьДавлениеВетер, м/сВероятность осадков
    00:00Облачно с прояснениями+19°C86 %748 мм1.8 м/с3 %
    03:00Практически безоблачно+17°C93 %749 мм1.7 м/с10 %
    06:00Ясно и безоблачно+17°C94 %749 мм0.8 м/с10 %
    09:00Ясно и безоблачно+23°C72 %750 мм1.1 м/с11 %
    12:00Ясно и безоблачно+26°C55 %750 мм0.6 м/с20 %
    15:00Ясно и безоблачно+28°C47 %750 мм0.9 м/с25 %
    18:00Практически безоблачно+28°C48 %750 мм1.1 м/с42 %
    21:00Ясно и безоблачно+23°C73 %750 мм0.6 м/с8 %
Мы используем cookies
Соглашаюсь